sensor_id;sensor_type;location;lat;lon;timestamp;pressure;altitude;pressure_sealevel;temperature;humidity
1472;BME280;963;42.644;23.336;2023-03-23T20:46:02;94275.31;;;11.35;63.11
1472;BME280;963;42.644;23.336;2023-03-23T20:48:30;94275.31;;;11.35;62.90
1472;BME280;963;42.644;23.336;2023-03-23T20:50:57;94276.13;;;11.39;62.82
1472;BME280;963;42.644;23.336;2023-03-23T20:53:24;94291.28;;;11.49;61.96
1472;BME280;963;42.644;23.336;2023-03-23T20:55:54;94320.66;;;11.51;61.66
1472;BME280;963;42.644;23.336;2023-03-23T20:58:23;94251.88;;;10.96;60.50
1472;BME280;963;42.644;23.336;2023-03-23T21:00:50;94278.97;;;11.27;59.82
1472;BME280;963;42.644;23.336;2023-03-23T21:03:28;94287.94;;;11.22;59.32
1472;BME280;963;42.644;23.336;2023-03-23T21:05:54;94293.88;;;11.16;58.78
1472;BME280;963;42.644;23.336;2023-03-23T21:08:21;94279.97;;;11.15;58.70
1472;BME280;963;42.644;23.336;2023-03-23T21:10:47;94289.97;;;11.06;58.69
1472;BME280;963;42.644;23.336;2023-03-23T21:13:14;94275.56;;;10.96;59.51
1472;BME280;963;42.644;23.336;2023-03-23T21:15:40;94300.53;;;11.10;59.47
1472;BME280;963;42.644;23.336;2023-03-23T21:18:06;94303.19;;;11.10;59.49
1472;BME280;963;42.644;23.336;2023-03-23T21:20:32;94303.50;;;11.05;60.29
1472;BME280;963;42.644;23.336;2023-03-23T21:22:58;94293.75;;;11.09;60.00
1472;BME280;963;42.644;23.336;2023-03-23T21:25:26;94293.75;;;11.09;60.54
1472;BME280;963;42.644;23.336;2023-03-23T21:27:51;94289.72;;;11.15;60.33
1472;BME280;963;42.644;23.336;2023-03-23T21:30:19;94300.66;;;11.17;60.77
1472;BME280;963;42.644;23.336;2023-03-23T21:32:44;94299.03;;;11.09;61.18
1472;BME280;963;42.644;23.336;2023-03-23T21:35:10;94288.53;;;11.12;61.52
1472;BME280;963;42.644;23.336;2023-03-23T21:37:36;94288.66;;;11.19;60.97
1472;BME280;963;42.644;23.336;2023-03-23T21:40:03;94293.16;;;11.19;60.81
1472;BME280;963;42.644;23.336;2023-03-23T21:42:29;94288.09;;;11.07;60.80
1472;BME280;963;42.644;23.336;2023-03-23T21:44:58;94309.78;;;10.96;61.24
1472;BME280;963;42.644;23.336;2023-03-23T21:47:27;94295.00;;;10.88;61.54
1472;BME280;963;42.644;23.336;2023-03-23T21:49:55;94294.59;;;10.63;62.35
1472;BME280;963;42.644;23.336;2023-03-23T21:52:22;94293.84;;;10.63;62.59
1472;BME280;963;42.644;23.336;2023-03-23T21:54:47;94288.66;;;10.67;62.56
1472;BME280;963;42.644;23.336;2023-03-23T21:57:13;94298.47;;;10.70;62.58
1472;BME280;963;42.644;23.336;2023-03-23T21:59:39;94284.91;;;10.68;62.65
1472;BME280;963;42.644;23.336;2023-03-23T22:02:04;94301.53;;;10.75;63.04
1472;BME280;963;42.644;23.336;2023-03-23T22:04:31;94301.63;;;10.79;63.29
1472;BME280;963;42.644;23.336;2023-03-23T22:06:56;94305.41;;;10.81;63.13
1472;BME280;963;42.644;23.336;2023-03-23T22:09:22;94289.50;;;10.74;62.66
1472;BME280;963;42.644;23.336;2023-03-23T22:11:47;94304.59;;;10.77;62.33
1472;BME280;963;42.644;23.336;2023-03-23T22:14:13;94302.66;;;10.74;62.31
1472;BME280;963;42.644;23.336;2023-03-23T22:16:38;94289.41;;;10.67;61.60
1472;BME280;963;42.644;23.336;2023-03-23T22:19:04;94291.63;;;10.65;62.22
1472;BME280;963;42.644;23.336;2023-03-23T22:21:30;94293.91;;;10.67;61.81
1472;BME280;963;42.644;23.336;2023-03-23T22:23:58;94290.91;;;10.68;62.15
1472;BME280;963;42.644;23.336;2023-03-23T22:26:25;94294.75;;;10.74;61.95
1472;BME280;963;42.644;23.336;2023-03-23T22:28:52;94290.50;;;10.66;61.66
1472;BME280;963;42.644;23.336;2023-03-23T22:31:23;94295.47;;;10.71;61.59
1472;BME280;963;42.644;23.336;2023-03-23T22:33:51;94301.44;;;10.68;61.96
1472;BME280;963;42.644;23.336;2023-03-23T22:36:20;94299.50;;;10.65;62.14
1472;BME280;963;42.644;23.336;2023-03-23T22:38:47;94316.00;;;10.62;62.11
1472;BME280;963;42.644;23.336;2023-03-23T22:41:21;94297.94;;;10.60;62.21
1472;BME280;963;42.644;23.336;2023-03-23T22:43:47;94299.50;;;10.65;62.21
1472;BME280;963;42.644;23.336;2023-03-23T22:46:13;94308.13;;;10.62;62.58
1472;BME280;963;42.644;23.336;2023-03-23T22:48:39;94302.84;;;10.62;62.56
1472;BME280;963;42.644;23.336;2023-03-23T22:51:05;94313.03;;;10.63;62.85
1472;BME280;963;42.644;23.336;2023-03-23T22:53:31;94304.38;;;10.63;62.57
1472;BME280;963;42.644;23.336;2023-03-23T22:55:57;94301.44;;;10.68;62.46
1472;BME280;963;42.644;23.336;2023-03-23T22:58:26;94300.69;;;10.68;62.27
1472;BME280;963;42.644;23.336;2023-03-23T23:01:00;94316.53;;;10.71;62.45
1472;BME280;963;42.644;23.336;2023-03-23T23:03:27;94315.72;;;10.67;62.80
1472;BME280;963;42.644;23.336;2023-03-23T23:05:54;94306.69;;;10.68;62.72
1472;BME280;963;42.644;23.336;2023-03-23T23:08:20;94296.06;;;10.61;62.91
1472;BME280;963;42.644;23.336;2023-03-23T23:10:50;94315.72;;;10.67;62.84
1472;BME280;963;42.644;23.336;2023-03-23T23:13:16;94301.34;;;10.61;62.54
1472;BME280;963;42.644;23.336;2023-03-23T23:15:45;94312.56;;;10.58;63.03
1472;BME280;963;42.644;23.336;2023-03-23T23:18:11;94304.25;;;10.56;63.56
1472;BME280;963;42.644;23.336;2023-03-23T23:20:37;94298.78;;;10.42;62.97
1472;BME280;963;42.644;23.336;2023-03-23T23:23:03;94301.56;;;10.29;63.03
1472;BME280;963;42.644;23.336;2023-03-23T23:25:30;94302.97;;;10.23;63.72
1472;BME280;963;42.644;23.336;2023-03-23T23:27:57;94313.00;;;10.18;64.20
1472;BME280;963;42.644;23.336;2023-03-23T23:30:23;94317.47;;;10.17;63.72
1472;BME280;963;42.644;23.336;2023-03-23T23:32:50;94301.38;;;10.19;64.05
1472;BME280;963;42.644;23.336;2023-03-23T23:35:17;94308.13;;;10.20;63.76
1472;BME280;963;42.644;23.336;2023-03-23T23:37:43;94292.19;;;10.09;63.71
1472;BME280;963;42.644;23.336;2023-03-23T23:40:08;94300.38;;;10.04;63.96
1472;BME280;963;42.644;23.336;2023-03-23T23:42:35;94298.06;;;10.02;64.09
1472;BME280;963;42.644;23.336;2023-03-23T23:45:01;94291.97;;;9.98;64.59
1472;BME280;963;42.644;23.336;2023-03-23T23:47:27;94293.84;;;9.98;64.89
1472;BME280;963;42.644;23.336;2023-03-23T23:49:53;94288.75;;;9.86;64.70
1472;BME280;963;42.644;23.336;2023-03-23T23:52:18;94275.84;;;9.77;64.51
1472;BME280;963;42.644;23.336;2023-03-23T23:54:44;94277.00;;;9.60;64.86
1472;BME280;963;42.644;23.336;2023-03-23T23:57:12;94265.22;;;9.51;65.06
1472;BME280;963;42.644;23.336;2023-03-23T23:59:38;94303.84;;;9.50;65.14
